Hauptseite
METAR-TAF:

METAR-TAF

Flughäfen :

Flughafen Paderborn/Lippstadt

Paderborn-Lippstadt, Deutschland

Breite: 51-37N, Länge: 008-37E, Höhe: 213 m

Beobachtung

Neuester Wetterbericht von vor 18 Minuten, um 05:20 UTC
Wind 10 kt aus Süd
Temperatur 8°C
Luftfeuchtigkeit 81%
Luftdruck 1026 hPa
Sichtweite 10 km oder mehr
keine Wolken unter 1500 m und keine Kumulonimbus oder Gewitterwolken

METAR: EDLP 070520Z 17010KT CAVOK 08/05 Q1026

Zeit: 07:38 (05:38 UTC)

Prognose

Neuester Wetterbericht von vor 6 Stunden und 38 Minuten, um 23:00 UTC
Gültige Prognose vom 07 um 00 UTC bis 07 um 24 UTC
Wind 6 kt aus Süd
Sichtweite 10 km oder mehr
keine Wolken unter 1500 m und keine Kumulonimbus oder Gewitterwolken
Übergehend zu
vom 07 um 07 UTC bis 07 um 10 UTC
Wind 8 kt aus Südwest

TAF: EDLP 062300Z 0700/0724 17006KT CAVOK BECMG 0707/0710 23008KT

Wetterbeobachtungen und Prognosen von mehr als 4000 Flughäfen (METAR und TAF Bericht).

Die verfügbaren Stationen werden durch gelbe und rote Markierungen auf der Karte dargestellt.

Führen Sie die Maus auf sie, um den Namen der Station zu sehen.

Darauf klicken, um die Beobachtung von Wetterbeobachtungen und Prognosen zu sehen.

Um die Karte zu ändern : klicken Sie auf den grünen Tasten mit einem schwarzen Kreuz Zum Vergrößern, auf den grünen Button mit einem Gedankenstrich zu verkleinern, oder auf die grünen Pfeile für benachbarte Karten.


METAR-TAF: